Tasman Crusader — A8NQ7 — position and weather

sailwx.info

Track history (hours):
 
Tides and Currents Weather Stations Pressure Air Temp Water Temp Dewpoint Dewpoint Depression Visibility Wind Speed Wind Dir Waves Ship Positions

Tasman Crusader

Last reported at 2017-Dec-17 00:08 UTC. Time now 2017-Dec-17 23:35 UTC.
Position N 33°00' W 119°56'.

Length 186 m; draft 8.9 m.

Type: Ship (hazmat cat A). MMSI: 636091434.

Date/timePositionNaut miles runAvg speedWind from/ knotsBaromVisibWave heightAir tempDewpointWater temp
2017-Dec-17 00:08N 33°00' W 119°56'716.7
2017-Dec-16 23:42N 33°06' W 120°01'316.5
2017-Dec-16 23:30N 33°09' W 120°03'916.4
2017-Dec-16 22:57N 33°16' W 120°10'716.4
2017-Dec-16 22:30N 33°22' W 120°15'816.3
2017-Dec-16 22:00N 33°28' W 120°21'816.7
2017-Dec-16 21:30N 33°35' W 120°27'916.8
2017-Dec-16 21:00N 33°42' W 120°33'816.9
2017-Dec-16 20:30N 33°48' W 120°39'916.8
2017-Dec-16 19:59N 33°55' W 120°45'816.9
2017-Dec-16 19:30N 34°02' W 120°51'816.6
2017-Dec-16 19:00N 34°09' W 120°57'816.8
2017-Dec-16 18:30N 34°16' W 121°03'816.6
2017-Dec-16 18:00N 34°22' W 121°09'816.6
2017-Dec-16 17:30N 34°29' W 121°14'817.0
2017-Dec-16 17:00N 34°37' W 121°18'917.1
2017-Dec-16 16:30N 34°45' W 121°23'916.9
2017-Dec-16 16:00N 34°52' W 121°28'817.1
2017-Dec-16 15:30N 35°00' W 121°32'917.2
2017-Dec-16 15:00N 35°08' W 121°37'917.0
2017-Dec-16 14:30N 35°15' W 121°42'816.8
2017-Dec-16 14:00N 35°23' W 121°46'816.7
2017-Dec-16 13:30N 35°30' W 121°50'1816.9
2017-Dec-16 12:25N 35°47' W 122°00'816.9
2017-Dec-16 11:57N 35°54' W 122°04'816.9
2017-Dec-16 11:30N 36°01' W 122°08'917.0
2017-Dec-16 11:00N 36°08' W 122°13'917.1
2017-Dec-16 10:30N 36°16' W 122°17'816.8
2017-Dec-16 10:00N 36°24' W 122°21'816.9
2017-Dec-16 09:30N 36°32' W 122°25'917.0
2017-Dec-16 08:58N 36°40' W 122°29'2417.0
2017-Dec-16 07:32N 37°03' W 122°40'216.5
2017-Dec-16 07:25N 37°05' W 122°41'716.7
2017-Dec-16 07:00N 37°11' W 122°43'917.0
2017-Dec-16 06:30N 37°20' W 122°44'917.0
2017-Dec-16 06:00N 37°28' W 122°44'917.0
2017-Dec-16 05:30N 37°37' W 122°43'816.8
2017-Dec-16 05:00N 37°45' W 122°43'5 9.7
2017-Dec-16 04:30N 37°46' W 122°37'713.9
2017-Dec-16 04:01N 37°49' W 122°29'510.0
2017-Dec-16 03:30N 37°48' W 122°23'3 5.2
2017-Dec-16 03:00N 37°48' W 122°19'0 0.0
2017-Dec-16 02:30N 37°48' W 122°19'0 0.0
2017-Dec-16 02:00N 37°48' W 122°19'0 0.0
2017-Dec-16 01:30N 37°48' W 122°19'0 0.0
2017-Dec-16 01:00N 37°48' W 122°19'0 0.0
2017-Dec-16 00:30N 37°48' W 122°19'0 0.0
2017-Dec-16 00:00N 37°48' W 122°19'0 0.0
2017-Dec-15 23:30N 37°48' W 122°19'0 0.0
2017-Dec-15 23:00N 37°48' W 122°19'0 0.0
2017-Dec-15 22:30N 37°48' W 122°19'0 0.0
2017-Dec-15 22:00N 37°48' W 122°19'0 0.0
2017-Dec-15 21:30N 37°48' W 122°19'0 0.0
2017-Dec-15 21:00N 37°48' W 122°19'0 0.0
2017-Dec-15 20:30N 37°48' W 122°19'0 0.0
2017-Dec-15 20:00N 37°48' W 122°19'0 0.0
2017-Dec-15 19:30N 37°48' W 122°19'0 0.0
2017-Dec-15 19:00N 37°48' W 122°19'0 0.0
2017-Dec-15 18:30N 37°48' W 122°19'0 0.0
2017-Dec-15 18:00N 37°48' W 122°19'0 0.0
2017-Dec-15 17:30N 37°48' W 122°19'0 0.0
2017-Dec-15 17:00N 37°48' W 122°19'0 0.0
2017-Dec-15 16:30N 37°48' W 122°19'0 0.0
2017-Dec-15 16:00N 37°48' W 122°19'0 0.0
2017-Dec-15 15:30N 37°48' W 122°19'0 0.0
2017-Dec-15 15:00N 37°48' W 122°19'0 0.0
2017-Dec-15 14:30N 37°48' W 122°19'0 0.0
2017-Dec-15 14:00N 37°48' W 122°19'0 0.0
2017-Dec-15 13:30N 37°48' W 122°19'0 0.0
2017-Dec-15 13:00N 37°48' W 122°19'0 0.0
2017-Dec-15 12:30N 37°48' W 122°19'0 0.0
2017-Dec-15 12:00N 37°48' W 122°19'0 0.0
2017-Dec-15 11:30N 37°48' W 122°19'0 0.0
2017-Dec-15 11:00N 37°48' W 122°19'0 0.0
2017-Dec-15 10:30N 37°48' W 122°19'0 0.0
2017-Dec-15 10:00N 37°48' W 122°19'0 0.7
2017-Dec-15 09:31N 37°48' W 122°20'5 9.4
2017-Dec-15 09:01N 37°49' W 122°25'713.8
2017-Dec-15 08:31N 37°47' W 122°34'612.7
2017-Dec-15 08:01N 37°44' W 122°41'611.2
2017-Dec-15 07:31N 37°39' W 122°40'815.4
2017-Dec-15 07:01N 37°31' W 122°40'816.6
2017-Dec-15 06:31N 37°23' W 122°40'816.1
2017-Dec-15 06:01N 37°15' W 122°39'815.9
2017-Dec-15 05:31N 37°07' W 122°38'816.1
2017-Dec-15 05:01N 36°59' W 122°35'816.4
2017-Dec-15 04:30N 36°51' W 122°32'816.2
2017-Dec-15 04:01N 36°44' W 122°28'2416.3
2017-Dec-15 02:30N 36°21' W 122°17'2516.4
2017-Dec-15 01:00N 35°60' W 122°01'816.5
2017-Dec-15 00:30N 35°53' W 121°56'10016.7
2017-Dec-14 18:30N 34°27' W 120°52'816.1
2017-Dec-14 18:00N 34°24' W 120°43'816.4
2017-Dec-14 17:30N 34°22' W 120°34'816.4
2017-Dec-14 17:00N 34°20' W 120°24'916.7
2017-Dec-14 16:29N 34°18' W 120°14'816.4
2017-Dec-14 16:00N 34°16' W 120°05'1616.4
2017-Dec-14 15:00N 34°11' W 119°46'816.2
2017-Dec-14 14:30N 34°09' W 119°36'816.5
2017-Dec-14 14:00N 34°07' W 119°27'816.8
2017-Dec-14 13:31N 34°05' W 119°17'816.6
2017-Dec-14 13:01N 34°01' W 119°08'715.0
2017-Dec-14 12:31N 33°58' W 119°00'612.0
2017-Dec-14 12:00N 33°55' W 118°54'612.1
2017-Dec-14 11:30N 33°52' W 118°48'611.9
2017-Dec-14 11:00N 33°49' W 118°41'611.7
2017-Dec-14 10:30N 33°46' W 118°35'611.9
2017-Dec-14 10:01N 33°43' W 118°29'612.0
2017-Dec-14 09:31N 33°40' W 118°23'611.4
2017-Dec-14 09:00N 33°39' W 118°16'5 9.7
2017-Dec-14 08:31N 33°42' W 118°12'5 6.4
2017-Dec-14 07:47N 33°46' W 118°14'1 2.1
2017-Dec-14 07:30N 33°46' W 118°14'0 0.0
2017-Dec-14 07:00N 33°46' W 118°14'0 0.0
2017-Dec-14 06:30N 33°46' W 118°14'0 0.0
2017-Dec-14 06:00N 33°46' W 118°14'0 0.0
2017-Dec-14 05:25N 33°46' W 118°14'0 0.0
2017-Dec-14 05:00N 33°46' W 118°14'0 0.0
2017-Dec-14 01:12N 33°46' W 118°14'0 0.0
2017-Dec-14 00:48N 33°46' W 118°14'0 0.0
2017-Dec-14 00:18N 33°46' W 118°14'0 0.0
2017-Dec-14 00:00N 33°46' W 118°14'0 0.0
2017-Dec-13 22:30N 33°46' W 118°14'0 0.0
2017-Dec-13 21:54N 33°46' W 118°14'0 0.0
2017-Dec-13 21:30N 33°46' W 118°14'0 0.0
2017-Dec-13 21:00N 33°46' W 118°14'0 0.0
2017-Dec-13 20:30N 33°46' W 118°14'0 0.0
2017-Dec-13 20:01N 33°46' W 118°14'0 0.0
2017-Dec-13 19:30N 33°46' W 118°14'0 0.0
2017-Dec-13 19:00N 33°46' W 118°14'0 0.0
2017-Dec-13 18:30N 33°46' W 118°14'0 0.0
2017-Dec-13 18:00N 33°46' W 118°14'0 0.0
2017-Dec-13 17:30N 33°46' W 118°14'0 0.0
2017-Dec-13 17:00N 33°46' W 118°14'0 0.0
2017-Dec-13 16:30N 33°46' W 118°14'0 0.0
2017-Dec-13 16:00N 33°46' W 118°14'1 2.1
2017-Dec-13 15:23N 33°45' W 118°13'3 7.2
2017-Dec-13 14:57N 33°43' W 118°11'510.1
2017-Dec-13 14:30N 33°38' W 118°10'3 6.9
2017-Dec-13 14:01N 33°35' W 118°09'3 6.9
2017-Dec-13 13:30N 33°32' W 118°08'4 7.0
2017-Dec-13 13:00N 33°28' W 118°07'4 7.1
2017-Dec-13 12:30N 33°25' W 118°05'4 7.3
2017-Dec-13 12:01N 33°21' W 118°04'4 7.3
2017-Dec-13 11:30N 33°18' W 118°02'4 8.1
2017-Dec-13 11:00N 33°14' W 118°00'611.5
2017-Dec-13 10:31N 33°09' W 117°58'611.8
2017-Dec-13 10:01N 33°04' W 117°55'714.4
2017-Dec-13 09:31N 32°57' W 117°52'815.5
2017-Dec-13 09:00N 32°50' W 117°48'815.5
2017-Dec-13 08:31N 32°43' W 117°44'815.2
2017-Dec-13 08:01N 32°36' W 117°40'815.1
2017-Dec-13 07:30N 32°29' W 117°37'714.9
2017-Dec-13 07:01N 32°22' W 117°35'714.9
2017-Dec-13 06:31N 32°15' W 117°32'815.0
2017-Dec-13 06:00N 32°08' W 117°29'  
Track history (hours):
 
Tides and Currents Weather Stations Pressure Air Temp Water Temp Dewpoint Dewpoint Depression Visibility Wind Speed Wind Dir Waves Ship Positions

Tasman Crusader

Last reported at 2017-Dec-17 00:08 UTC. Time now 2017-Dec-17 23:35 UTC.
Position N 33°00' W 119°56'.

Length 186 m; draft 8.9 m.

Type: Ship (hazmat cat A). MMSI: 636091434.

Date/timePositionNaut miles runAvg speedWind from/ knotsBaromVisibWave heightAir tempDewpointWater temp
2017-Dec-17 00:08N 33°00' W 119°56'716.7
2017-Dec-16 23:42N 33°06' W 120°01'316.5
2017-Dec-16 23:30N 33°09' W 120°03'916.4
2017-Dec-16 22:57N 33°16' W 120°10'716.4
2017-Dec-16 22:30N 33°22' W 120°15'816.3
2017-Dec-16 22:00N 33°28' W 120°21'816.7
2017-Dec-16 21:30N 33°35' W 120°27'916.8
2017-Dec-16 21:00N 33°42' W 120°33'816.9
2017-Dec-16 20:30N 33°48' W 120°39'916.8
2017-Dec-16 19:59N 33°55' W 120°45'816.9
2017-Dec-16 19:30N 34°02' W 120°51'816.6
2017-Dec-16 19:00N 34°09' W 120°57'816.8
2017-Dec-16 18:30N 34°16' W 121°03'816.6
2017-Dec-16 18:00N 34°22' W 121°09'816.6
2017-Dec-16 17:30N 34°29' W 121°14'817.0
2017-Dec-16 17:00N 34°37' W 121°18'917.1
2017-Dec-16 16:30N 34°45' W 121°23'916.9
2017-Dec-16 16:00N 34°52' W 121°28'817.1
2017-Dec-16 15:30N 35°00' W 121°32'917.2
2017-Dec-16 15:00N 35°08' W 121°37'917.0
2017-Dec-16 14:30N 35°15' W 121°42'816.8
2017-Dec-16 14:00N 35°23' W 121°46'816.7
2017-Dec-16 13:30N 35°30' W 121°50'1816.9
2017-Dec-16 12:25N 35°47' W 122°00'816.9
2017-Dec-16 11:57N 35°54' W 122°04'816.9
2017-Dec-16 11:30N 36°01' W 122°08'917.0
2017-Dec-16 11:00N 36°08' W 122°13'917.1
2017-Dec-16 10:30N 36°16' W 122°17'816.8
2017-Dec-16 10:00N 36°24' W 122°21'816.9
2017-Dec-16 09:30N 36°32' W 122°25'917.0
2017-Dec-16 08:58N 36°40' W 122°29'2417.0
2017-Dec-16 07:32N 37°03' W 122°40'216.5
2017-Dec-16 07:25N 37°05' W 122°41'716.7
2017-Dec-16 07:00N 37°11' W 122°43'917.0
2017-Dec-16 06:30N 37°20' W 122°44'917.0
2017-Dec-16 06:00N 37°28' W 122°44'917.0
2017-Dec-16 05:30N 37°37' W 122°43'816.8
2017-Dec-16 05:00N 37°45' W 122°43'5 9.7
2017-Dec-16 04:30N 37°46' W 122°37'713.9
2017-Dec-16 04:01N 37°49' W 122°29'510.0
2017-Dec-16 03:30N 37°48' W 122°23'3 5.2
2017-Dec-16 03:00N 37°48' W 122°19'0 0.0
2017-Dec-16 02:30N 37°48' W 122°19'0 0.0
2017-Dec-16 02:00N 37°48' W 122°19'0 0.0
2017-Dec-16 01:30N 37°48' W 122°19'0 0.0
2017-Dec-16 01:00N 37°48' W 122°19'0 0.0
2017-Dec-16 00:30N 37°48' W 122°19'0 0.0
2017-Dec-16 00:00N 37°48' W 122°19'0 0.0
2017-Dec-15 23:30N 37°48' W 122°19'0 0.0
2017-Dec-15 23:00N 37°48' W 122°19'0 0.0
2017-Dec-15 22:30N 37°48' W 122°19'0 0.0
2017-Dec-15 22:00N 37°48' W 122°19'0 0.0
2017-Dec-15 21:30N 37°48' W 122°19'0 0.0
2017-Dec-15 21:00N 37°48' W 122°19'0 0.0
2017-Dec-15 20:30N 37°48' W 122°19'0 0.0
2017-Dec-15 20:00N 37°48' W 122°19'0 0.0
2017-Dec-15 19:30N 37°48' W 122°19'0 0.0
2017-Dec-15 19:00N 37°48' W 122°19'0 0.0
2017-Dec-15 18:30N 37°48' W 122°19'0 0.0
2017-Dec-15 18:00N 37°48' W 122°19'0 0.0
2017-Dec-15 17:30N 37°48' W 122°19'0 0.0
2017-Dec-15 17:00N 37°48' W 122°19'0 0.0
2017-Dec-15 16:30N 37°48' W 122°19'0 0.0
2017-Dec-15 16:00N 37°48' W 122°19'0 0.0
2017-Dec-15 15:30N 37°48' W 122°19'0 0.0
2017-Dec-15 15:00N 37°48' W 122°19'0 0.0
2017-Dec-15 14:30N 37°48' W 122°19'0 0.0
2017-Dec-15 14:00N 37°48' W 122°19'0 0.0
2017-Dec-15 13:30N 37°48' W 122°19'0 0.0
2017-Dec-15 13:00N 37°48' W 122°19'0 0.0
2017-Dec-15 12:30N 37°48' W 122°19'0 0.0
2017-Dec-15 12:00N 37°48' W 122°19'0 0.0
2017-Dec-15 11:30N 37°48' W 122°19'0 0.0
2017-Dec-15 11:00N 37°48' W 122°19'0 0.0
2017-Dec-15 10:30N 37°48' W 122°19'0 0.0
2017-Dec-15 10:00N 37°48' W 122°19'0 0.7
2017-Dec-15 09:31N 37°48' W 122°20'5 9.4
2017-Dec-15 09:01N 37°49' W 122°25'713.8
2017-Dec-15 08:31N 37°47' W 122°34'612.7
2017-Dec-15 08:01N 37°44' W 122°41'611.2
2017-Dec-15 07:31N 37°39' W 122°40'815.4
2017-Dec-15 07:01N 37°31' W 122°40'816.6
2017-Dec-15 06:31N 37°23' W 122°40'816.1
2017-Dec-15 06:01N 37°15' W 122°39'815.9
2017-Dec-15 05:31N 37°07' W 122°38'816.1
2017-Dec-15 05:01N 36°59' W 122°35'816.4
2017-Dec-15 04:30N 36°51' W 122°32'816.2
2017-Dec-15 04:01N 36°44' W 122°28'2416.3
2017-Dec-15 02:30N 36°21' W 122°17'2516.4
2017-Dec-15 01:00N 35°60' W 122°01'816.5
2017-Dec-15 00:30N 35°53' W 121°56'10016.7
2017-Dec-14 18:30N 34°27' W 120°52'816.1
2017-Dec-14 18:00N 34°24' W 120°43'816.4
2017-Dec-14 17:30N 34°22' W 120°34'816.4
2017-Dec-14 17:00N 34°20' W 120°24'916.7
2017-Dec-14 16:29N 34°18' W 120°14'816.4
2017-Dec-14 16:00N 34°16' W 120°05'1616.4
2017-Dec-14 15:00N 34°11' W 119°46'816.2
2017-Dec-14 14:30N 34°09' W 119°36'816.5
2017-Dec-14 14:00N 34°07' W 119°27'816.8
2017-Dec-14 13:31N 34°05' W 119°17'816.6
2017-Dec-14 13:01N 34°01' W 119°08'715.0
2017-Dec-14 12:31N 33°58' W 119°00'612.0
2017-Dec-14 12:00N 33°55' W 118°54'612.1
2017-Dec-14 11:30N 33°52' W 118°48'611.9
2017-Dec-14 11:00N 33°49' W 118°41'611.7
2017-Dec-14 10:30N 33°46' W 118°35'611.9
2017-Dec-14 10:01N 33°43' W 118°29'612.0
2017-Dec-14 09:31N 33°40' W 118°23'611.4
2017-Dec-14 09:00N 33°39' W 118°16'5 9.7
2017-Dec-14 08:31N 33°42' W 118°12'5 6.4
2017-Dec-14 07:47N 33°46' W 118°14'1 2.1
2017-Dec-14 07:30N 33°46' W 118°14'0 0.0
2017-Dec-14 07:00N 33°46' W 118°14'0 0.0
2017-Dec-14 06:30N 33°46' W 118°14'0 0.0
2017-Dec-14 06:00N 33°46' W 118°14'0 0.0
2017-Dec-14 05:25N 33°46' W 118°14'0 0.0
2017-Dec-14 05:00N 33°46' W 118°14'0 0.0
2017-Dec-14 01:12N 33°46' W 118°14'0 0.0
2017-Dec-14 00:48N 33°46' W 118°14'0 0.0
2017-Dec-14 00:18N 33°46' W 118°14'0 0.0
2017-Dec-14 00:00N 33°46' W 118°14'0 0.0
2017-Dec-13 22:30N 33°46' W 118°14'0 0.0
2017-Dec-13 21:54N 33°46' W 118°14'0 0.0
2017-Dec-13 21:30N 33°46' W 118°14'0 0.0
2017-Dec-13 21:00N 33°46' W 118°14'0 0.0
2017-Dec-13 20:30N 33°46' W 118°14'0 0.0
2017-Dec-13 20:01N 33°46' W 118°14'0 0.0
2017-Dec-13 19:30N 33°46' W 118°14'0 0.0
2017-Dec-13 19:00N 33°46' W 118°14'0 0.0
2017-Dec-13 18:30N 33°46' W 118°14'0 0.0
2017-Dec-13 18:00N 33°46' W 118°14'0 0.0
2017-Dec-13 17:30N 33°46' W 118°14'0 0.0
2017-Dec-13 17:00N 33°46' W 118°14'0 0.0
2017-Dec-13 16:30N 33°46' W 118°14'0 0.0
2017-Dec-13 16:00N 33°46' W 118°14'1 2.1
2017-Dec-13 15:23N 33°45' W 118°13'3 7.2
2017-Dec-13 14:57N 33°43' W 118°11'510.1
2017-Dec-13 14:30N 33°38' W 118°10'3 6.9
2017-Dec-13 14:01N 33°35' W 118°09'3 6.9
2017-Dec-13 13:30N 33°32' W 118°08'4 7.0
2017-Dec-13 13:00N 33°28' W 118°07'4 7.1
2017-Dec-13 12:30N 33°25' W 118°05'4 7.3
2017-Dec-13 12:01N 33°21' W 118°04'4 7.3
2017-Dec-13 11:30N 33°18' W 118°02'4 8.1
2017-Dec-13 11:00N 33°14' W 118°00'611.5
2017-Dec-13 10:31N 33°09' W 117°58'611.8
2017-Dec-13 10:01N 33°04' W 117°55'714.4
2017-Dec-13 09:31N 32°57' W 117°52'815.5
2017-Dec-13 09:00N 32°50' W 117°48'815.5
2017-Dec-13 08:31N 32°43' W 117°44'815.2
2017-Dec-13 08:01N 32°36' W 117°40'815.1
2017-Dec-13 07:30N 32°29' W 117°37'714.9
2017-Dec-13 07:01N 32°22' W 117°35'714.9
2017-Dec-13 06:31N 32°15' W 117°32'815.0
2017-Dec-13 06:00N 32°08' W 117°29'  

Dump ship's entire track history